sensor_id;sensor_type;location;lat;lon;timestamp;temperature;humidity
5938;DHT22;2994;51.220;4.412;2022-10-29T00:01:46;19.41;70.17
5938;DHT22;2994;51.220;4.412;2022-10-29T00:04:12;19.38;70.26
5938;DHT22;2994;51.220;4.412;2022-10-29T00:06:37;19.37;70.67
5938;DHT22;2994;51.220;4.412;2022-10-29T00:09:03;19.35;70.71
5938;DHT22;2994;51.220;4.412;2022-10-29T00:11:29;19.32;70.90
5938;DHT22;2994;51.220;4.412;2022-10-29T00:13:57;19.31;70.93
5938;DHT22;2994;51.220;4.412;2022-10-29T00:16:25;19.29;71.15
5938;DHT22;2994;51.220;4.412;2022-10-29T00:18:51;19.28;71.52
5938;DHT22;2994;51.220;4.412;2022-10-29T00:21:20;19.27;71.56
5938;DHT22;2994;51.220;4.412;2022-10-29T00:23:50;19.24;71.74
5938;DHT22;2994;51.220;4.412;2022-10-29T00:26:17;19.23;72.13
5938;DHT22;2994;51.220;4.412;2022-10-29T00:28:47;19.21;72.38
5938;DHT22;2994;51.220;4.412;2022-10-29T00:31:15;19.18;72.60
5938;DHT22;2994;51.220;4.412;2022-10-29T00:33:41;19.17;72.81
5938;DHT22;2994;51.220;4.412;2022-10-29T00:36:13;19.15;73.02
5938;DHT22;2994;51.220;4.412;2022-10-29T00:38:39;19.15;72.83
5938;DHT22;2994;51.220;4.412;2022-10-29T00:41:06;19.14;73.09
5938;DHT22;2994;51.220;4.412;2022-10-29T00:43:34;19.13;73.08
5938;DHT22;2994;51.220;4.412;2022-10-29T00:46:09;19.12;73.43
5938;DHT22;2994;51.220;4.412;2022-10-29T00:48:42;19.13;73.45
5938;DHT22;2994;51.220;4.412;2022-10-29T00:51:10;19.13;73.44
5938;DHT22;2994;51.220;4.412;2022-10-29T00:53:39;19.13;73.49
5938;DHT22;2994;51.220;4.412;2022-10-29T00:56:09;19.15;73.32
5938;DHT22;2994;51.220;4.412;2022-10-29T00:58:35;19.14;73.35
5938;DHT22;2994;51.220;4.412;2022-10-29T01:01:01;19.13;73.40
5938;DHT22;2994;51.220;4.412;2022-10-29T01:03:29;19.10;73.61
5938;DHT22;2994;51.220;4.412;2022-10-29T01:05:55;19.09;73.81
5938;DHT22;2994;51.220;4.412;2022-10-29T01:08:21;19.06;73.77
5938;DHT22;2994;51.220;4.412;2022-10-29T01:16:48;19.01;73.80
5938;DHT22;2994;51.220;4.412;2022-10-29T01:29:50;18.97;74.16
5938;DHT22;2994;51.220;4.412;2022-10-29T01:32:27;18.96;74.22
5938;DHT22;2994;51.220;4.412;2022-10-29T01:35:10;18.96;74.30
5938;DHT22;2994;51.220;4.412;2022-10-29T01:38:04;18.97;74.32
5938;DHT22;2994;51.220;4.412;2022-10-29T01:40:35;18.96;74.60
5938;DHT22;2994;51.220;4.412;2022-10-29T01:43:10;18.96;74.67
5938;DHT22;2994;51.220;4.412;2022-10-29T01:45:49;18.93;74.65
5938;DHT22;2994;51.220;4.412;2022-10-29T01:48:18;18.92;74.71
5938;DHT22;2994;51.220;4.412;2022-10-29T01:50:49;18.89;74.69
5938;DHT22;2994;51.220;4.412;2022-10-29T01:53:17;18.92;74.68
5938;DHT22;2994;51.220;4.412;2022-10-29T01:55:43;18.91;74.69
5938;DHT22;2994;51.220;4.412;2022-10-29T01:58:08;18.89;74.72
5938;DHT22;2994;51.220;4.412;2022-10-29T02:09:27;18.86;74.83
5938;DHT22;2994;51.220;4.412;2022-10-29T02:12:07;18.83;74.87
5938;DHT22;2994;51.220;4.412;2022-10-29T02:14:39;18.81;74.92
5938;DHT22;2994;51.220;4.412;2022-10-29T02:17:07;18.80;75.01
5938;DHT22;2994;51.220;4.412;2022-10-29T02:19:33;18.78;75.11
5938;DHT22;2994;51.220;4.412;2022-10-29T02:21:59;18.79;75.24
5938;DHT22;2994;51.220;4.412;2022-10-29T02:24:25;18.78;75.24
5938;DHT22;2994;51.220;4.412;2022-10-29T02:26:50;18.79;75.27
5938;DHT22;2994;51.220;4.412;2022-10-29T02:29:16;18.79;75.11
5938;DHT22;2994;51.220;4.412;2022-10-29T02:31:41;18.80;75.25
5938;DHT22;2994;51.220;4.412;2022-10-29T02:34:07;18.78;75.25
5938;DHT22;2994;51.220;4.412;2022-10-29T02:36:32;18.77;75.47
5938;DHT22;2994;51.220;4.412;2022-10-29T02:38:58;18.76;75.64
5938;DHT22;2994;51.220;4.412;2022-10-29T02:41:23;18.77;75.59
5938;DHT22;2994;51.220;4.412;2022-10-29T02:43:48;18.74;75.61
5938;DHT22;2994;51.220;4.412;2022-10-29T02:46:17;18.73;75.70
5938;DHT22;2994;51.220;4.412;2022-10-29T02:48:43;18.68;75.92
5938;DHT22;2994;51.220;4.412;2022-10-29T02:51:09;18.68;75.95
5938;DHT22;2994;51.220;4.412;2022-10-29T02:53:35;18.70;75.83
5938;DHT22;2994;51.220;4.412;2022-10-29T02:56:01;18.69;75.79
5938;DHT22;2994;51.220;4.412;2022-10-29T02:58:26;18.68;75.84
5938;DHT22;2994;51.220;4.412;2022-10-29T03:00:52;18.67;75.98
5938;DHT22;2994;51.220;4.412;2022-10-29T03:03:17;18.70;75.98
5938;DHT22;2994;51.220;4.412;2022-10-29T03:05:43;18.70;76.08
5938;DHT22;2994;51.220;4.412;2022-10-29T03:08:08;18.70;76.00
5938;DHT22;2994;51.220;4.412;2022-10-29T03:10:34;18.72;75.70
5938;DHT22;2994;51.220;4.412;2022-10-29T03:13:00;18.73;75.44
5938;DHT22;2994;51.220;4.412;2022-10-29T03:15:25;18.71;75.60
5938;DHT22;2994;51.220;4.412;2022-10-29T03:17:51;18.70;75.66
5938;DHT22;2994;51.220;4.412;2022-10-29T03:20:16;18.70;75.63
5938;DHT22;2994;51.220;4.412;2022-10-29T03:22:42;18.70;75.52
5938;DHT22;2994;51.220;4.412;2022-10-29T03:25:08;18.72;75.51
5938;DHT22;2994;51.220;4.412;2022-10-29T03:27:39;18.72;75.55
5938;DHT22;2994;51.220;4.412;2022-10-29T03:30:07;18.76;75.32
5938;DHT22;2994;51.220;4.412;2022-10-29T03:32:33;18.74;75.36
5938;DHT22;2994;51.220;4.412;2022-10-29T03:34:58;18.76;75.04
5938;DHT22;2994;51.220;4.412;2022-10-29T03:37:23;18.77;75.05
5938;DHT22;2994;51.220;4.412;2022-10-29T03:39:49;18.77;74.90
5938;DHT22;2994;51.220;4.412;2022-10-29T03:42:14;18.78;74.51
5938;DHT22;2994;51.220;4.412;2022-10-29T03:44:39;18.76;74.36
5938;DHT22;2994;51.220;4.412;2022-10-29T03:47:07;18.77;74.25
5938;DHT22;2994;51.220;4.412;2022-10-29T03:49:33;18.79;74.10
5938;DHT22;2994;51.220;4.412;2022-10-29T03:51:58;18.78;74.04
5938;DHT22;2994;51.220;4.412;2022-10-29T03:54:24;18.80;73.83
5938;DHT22;2994;51.220;4.412;2022-10-29T03:56:49;18.79;73.48
5938;DHT22;2994;51.220;4.412;2022-10-29T03:59:15;18.80;73.19
5938;DHT22;2994;51.220;4.412;2022-10-29T04:01:40;18.78;73.31
5938;DHT22;2994;51.220;4.412;2022-10-29T04:04:05;18.74;72.78
5938;DHT22;2994;51.220;4.412;2022-10-29T04:06:31;18.72;72.75
5938;DHT22;2994;51.220;4.412;2022-10-29T04:08:56;18.74;72.33
5938;DHT22;2994;51.220;4.412;2022-10-29T04:11:22;18.77;72.48
5938;DHT22;2994;51.220;4.412;2022-10-29T04:13:51;18.77;72.74
5938;DHT22;2994;51.220;4.412;2022-10-29T04:16:17;18.79;72.96
5938;DHT22;2994;51.220;4.412;2022-10-29T04:18:42;18.79;73.28
5938;DHT22;2994;51.220;4.412;2022-10-29T04:21:08;18.81;73.45
5938;DHT22;2994;51.220;4.412;2022-10-29T04:23:33;18.82;73.61
5938;DHT22;2994;51.220;4.412;2022-10-29T04:25:59;18.82;73.75
5938;DHT22;2994;51.220;4.412;2022-10-29T04:28:24;18.77;73.97
5938;DHT22;2994;51.220;4.412;2022-10-29T04:30:50;18.78;74.15
5938;DHT22;2994;51.220;4.412;2022-10-29T04:33:16;18.81;74.02
5938;DHT22;2994;51.220;4.412;2022-10-29T04:35:42;18.82;73.95
5938;DHT22;2994;51.220;4.412;2022-10-29T04:38:08;18.80;74.02
5938;DHT22;2994;51.220;4.412;2022-10-29T04:40:34;18.80;74.15
5938;DHT22;2994;51.220;4.412;2022-10-29T04:42:59;18.81;74.03
5938;DHT22;2994;51.220;4.412;2022-10-29T04:45:25;18.74;74.41
5938;DHT22;2994;51.220;4.412;2022-10-29T04:48:01;18.71;74.55
5938;DHT22;2994;51.220;4.412;2022-10-29T04:50:27;18.65;74.80
5938;DHT22;2994;51.220;4.412;2022-10-29T04:52:57;18.61;75.09
5938;DHT22;2994;51.220;4.412;2022-10-29T04:55:23;18.61;75.09
5938;DHT22;2994;51.220;4.412;2022-10-29T04:57:49;18.61;75.16
5938;DHT22;2994;51.220;4.412;2022-10-29T05:00:14;18.63;75.12
5938;DHT22;2994;51.220;4.412;2022-10-29T05:02:40;18.54;75.44
5938;DHT22;2994;51.220;4.412;2022-10-29T05:05:06;18.50;75.67
5938;DHT22;2994;51.220;4.412;2022-10-29T05:07:31;18.50;75.76
5938;DHT22;2994;51.220;4.412;2022-10-29T05:09:57;18.50;75.73
5938;DHT22;2994;51.220;4.412;2022-10-29T05:12:22;18.52;75.70
5938;DHT22;2994;51.220;4.412;2022-10-29T05:14:47;18.49;75.87
5938;DHT22;2994;51.220;4.412;2022-10-29T05:17:13;18.48;76.01
5938;DHT22;2994;51.220;4.412;2022-10-29T05:19:38;18.35;76.51
5938;DHT22;2994;51.220;4.412;2022-10-29T05:22:03;18.38;76.45
5938;DHT22;2994;51.220;4.412;2022-10-29T05:24:29;18.40;76.41
5938;DHT22;2994;51.220;4.412;2022-10-29T05:26:54;18.37;76.50
5938;DHT22;2994;51.220;4.412;2022-10-29T05:29:20;18.41;76.37
5938;DHT22;2994;51.220;4.412;2022-10-29T05:31:45;18.42;76.50
5938;DHT22;2994;51.220;4.412;2022-10-29T05:34:11;18.43;76.44
5938;DHT22;2994;51.220;4.412;2022-10-29T05:36:36;18.36;76.75
5938;DHT22;2994;51.220;4.412;2022-10-29T05:39:01;18.43;76.39
5938;DHT22;2994;51.220;4.412;2022-10-29T05:41:27;18.41;76.42
5938;DHT22;2994;51.220;4.412;2022-10-29T05:43:52;18.41;76.45
5938;DHT22;2994;51.220;4.412;2022-10-29T05:46:18;18.39;76.57
5938;DHT22;2994;51.220;4.412;2022-10-29T05:48:43;18.40;76.53
5938;DHT22;2994;51.220;4.412;2022-10-29T05:51:09;18.37;76.63
5938;DHT22;2994;51.220;4.412;2022-10-29T05:53:34;18.36;76.60
5938;DHT22;2994;51.220;4.412;2022-10-29T05:56:00;18.36;76.74
5938;DHT22;2994;51.220;4.412;2022-10-29T05:58:25;18.35;76.76
5938;DHT22;2994;51.220;4.412;2022-10-29T06:00:51;18.34;76.73
5938;DHT22;2994;51.220;4.412;2022-10-29T06:03:21;18.32;76.86
5938;DHT22;2994;51.220;4.412;2022-10-29T06:05:48;18.32;76.82
5938;DHT22;2994;51.220;4.412;2022-10-29T06:08:14;18.34;76.90
5938;DHT22;2994;51.220;4.412;2022-10-29T06:10:40;18.35;76.75
5938;DHT22;2994;51.220;4.412;2022-10-29T06:13:14;18.34;76.80
5938;DHT22;2994;51.220;4.412;2022-10-29T06:15:40;18.34;76.76
5938;DHT22;2994;51.220;4.412;2022-10-29T06:18:05;18.32;76.85
5938;DHT22;2994;51.220;4.412;2022-10-29T06:20:31;18.33;76.78
5938;DHT22;2994;51.220;4.412;2022-10-29T06:22:57;18.28;76.96
5938;DHT22;2994;51.220;4.412;2022-10-29T06:25:24;18.30;76.93
5938;DHT22;2994;51.220;4.412;2022-10-29T06:28:03;18.33;76.80
5938;DHT22;2994;51.220;4.412;2022-10-29T06:30:30;18.36;76.61
5938;DHT22;2994;51.220;4.412;2022-10-29T06:32:56;18.32;76.73
5938;DHT22;2994;51.220;4.412;2022-10-29T06:35:22;18.21;77.19
5938;DHT22;2994;51.220;4.412;2022-10-29T06:37:47;18.22;77.18
5938;DHT22;2994;51.220;4.412;2022-10-29T06:40:13;18.25;76.97
5938;DHT22;2994;51.220;4.412;2022-10-29T06:42:38;18.21;77.16
5938;DHT22;2994;51.220;4.412;2022-10-29T06:45:04;18.20;77.41
5938;DHT22;2994;51.220;4.412;2022-10-29T06:47:29;18.21;77.47
5938;DHT22;2994;51.220;4.412;2022-10-29T06:49:55;18.21;77.50
5938;DHT22;2994;51.220;4.412;2022-10-29T06:52:21;18.23;77.53
5938;DHT22;2994;51.220;4.412;2022-10-29T06:54:46;18.24;77.39
5938;DHT22;2994;51.220;4.412;2022-10-29T06:57:12;18.25;77.38
5938;DHT22;2994;51.220;4.412;2022-10-29T06:59:37;18.24;77.40
5938;DHT22;2994;51.220;4.412;2022-10-29T07:02:03;18.28;77.25
5938;DHT22;2994;51.220;4.412;2022-10-29T07:04:28;18.28;77.32
5938;DHT22;2994;51.220;4.412;2022-10-29T07:06:54;18.24;77.48
5938;DHT22;2994;51.220;4.412;2022-10-29T07:09:19;18.28;77.35
5938;DHT22;2994;51.220;4.412;2022-10-29T07:11:44;18.26;77.40
5938;DHT22;2994;51.220;4.412;2022-10-29T07:14:10;18.26;77.39
5938;DHT22;2994;51.220;4.412;2022-10-29T07:16:35;18.24;77.51
5938;DHT22;2994;51.220;4.412;2022-10-29T07:19:02;18.23;77.59
5938;DHT22;2994;51.220;4.412;2022-10-29T07:21:28;18.23;77.59
5938;DHT22;2994;51.220;4.412;2022-10-29T07:23:53;18.26;77.50
5938;DHT22;2994;51.220;4.412;2022-10-29T07:26:19;18.27;77.52
5938;DHT22;2994;51.220;4.412;2022-10-29T07:28:44;18.33;77.40
5938;DHT22;2994;51.220;4.412;2022-10-29T07:31:10;18.34;77.31
5938;DHT22;2994;51.220;4.412;2022-10-29T07:33:35;18.37;77.35
5938;DHT22;2994;51.220;4.412;2022-10-29T07:36:00;18.42;77.15
5938;DHT22;2994;51.220;4.412;2022-10-29T07:38:26;18.43;76.99
5938;DHT22;2994;51.220;4.412;2022-10-29T07:40:52;18.39;77.25
5938;DHT22;2994;51.220;4.412;2022-10-29T07:43:18;18.38;77.37
5938;DHT22;2994;51.220;4.412;2022-10-29T07:45:45;18.40;77.26
5938;DHT22;2994;51.220;4.412;2022-10-29T07:48:14;18.46;77.11
5938;DHT22;2994;51.220;4.412;2022-10-29T07:50:39;18.50;77.15
5938;DHT22;2994;51.220;4.412;2022-10-29T07:53:06;18.49;77.12
5938;DHT22;2994;51.220;4.412;2022-10-29T07:55:32;18.61;76.69
5938;DHT22;2994;51.220;4.412;2022-10-29T07:57:59;18.57;76.89
5938;DHT22;2994;51.220;4.412;2022-10-29T08:00:26;18.61;76.82
5938;DHT22;2994;51.220;4.412;2022-10-29T08:02:53;18.65;76.73
5938;DHT22;2994;51.220;4.412;2022-10-29T08:05:19;18.69;76.53
5938;DHT22;2994;51.220;4.412;2022-10-29T08:07:44;18.71;76.41
5938;DHT22;2994;51.220;4.412;2022-10-29T08:10:10;18.78;76.37
5938;DHT22;2994;51.220;4.412;2022-10-29T08:12:35;18.81;76.45
5938;DHT22;2994;51.220;4.412;2022-10-29T08:15:00;18.87;76.14
5938;DHT22;2994;51.220;4.412;2022-10-29T08:17:28;18.93;75.79
5938;DHT22;2994;51.220;4.412;2022-10-29T08:19:54;18.95;75.79
5938;DHT22;2994;51.220;4.412;2022-10-29T08:22:19;18.98;75.76
5938;DHT22;2994;51.220;4.412;2022-10-29T08:24:44;19.05;75.77
5938;DHT22;2994;51.220;4.412;2022-10-29T08:27:10;19.11;75.47
5938;DHT22;2994;51.220;4.412;2022-10-29T08:29:35;19.17;75.14
5938;DHT22;2994;51.220;4.412;2022-10-29T08:32:01;19.20;74.83
5938;DHT22;2994;51.220;4.412;2022-10-29T08:34:26;19.18;74.99
5938;DHT22;2994;51.220;4.412;2022-10-29T08:36:51;19.21;74.99
5938;DHT22;2994;51.220;4.412;2022-10-29T08:39:17;19.23;74.74
5938;DHT22;2994;51.220;4.412;2022-10-29T08:44:50;19.27;74.62
5938;DHT22;2994;51.220;4.412;2022-10-29T08:47:21;19.33;74.60
5938;DHT22;2994;51.220;4.412;2022-10-29T08:50:14;19.35;74.87
5938;DHT22;2994;51.220;4.412;2022-10-29T08:52:43;19.39;74.29
5938;DHT22;2994;51.220;4.412;2022-10-29T08:55:33;19.41;74.47
5938;DHT22;2994;51.220;4.412;2022-10-29T09:00:55;19.39;73.99
5938;DHT22;2994;51.220;4.412;2022-10-29T09:03:21;19.47;73.99
5938;DHT22;2994;51.220;4.412;2022-10-29T09:11:11;19.54;73.68
5938;DHT22;2994;51.220;4.412;2022-10-29T09:16:40;19.59;73.44
5938;DHT22;2994;51.220;4.412;2022-10-29T09:19:23;19.59;73.48
5938;DHT22;2994;51.220;4.412;2022-10-29T09:25:19;19.61;73.33
5938;DHT22;2994;51.220;4.412;2022-10-29T09:30:29;19.73;72.98
5938;DHT22;2994;51.220;4.412;2022-10-29T09:32:59;19.67;72.92
5938;DHT22;2994;51.220;4.412;2022-10-29T09:35:39;19.69;73.01
5938;DHT22;2994;51.220;4.412;2022-10-29T09:38:16;19.74;73.03
5938;DHT22;2994;51.220;4.412;2022-10-29T09:40:43;19.83;72.92
5938;DHT22;2994;51.220;4.412;2022-10-29T09:43:38;19.80;72.97
5938;DHT22;2994;51.220;4.412;2022-10-29T09:46:14;19.89;72.83
5938;DHT22;2994;51.220;4.412;2022-10-29T09:49:49;19.94;72.65
5938;DHT22;2994;51.220;4.412;2022-10-29T09:51:59;19.95;72.54
5938;DHT22;2994;51.220;4.412;2022-10-29T09:54:28;20.03;72.17
5938;DHT22;2994;51.220;4.412;2022-10-29T09:56:55;20.10;72.06
5938;DHT22;2994;51.220;4.412;2022-10-29T09:59:39;20.17;71.87
5938;DHT22;2994;51.220;4.412;2022-10-29T10:04:53;20.33;71.33
5938;DHT22;2994;51.220;4.412;2022-10-29T10:07:19;20.36;71.06
5938;DHT22;2994;51.220;4.412;2022-10-29T10:09:56;20.48;70.17
5938;DHT22;2994;51.220;4.412;2022-10-29T10:12:26;20.51;69.88
5938;DHT22;2994;51.220;4.412;2022-10-29T10:15:18;20.61;69.44
5938;DHT22;2994;51.220;4.412;2022-10-29T10:17:56;20.64;69.25
5938;DHT22;2994;51.220;4.412;2022-10-29T10:20:39;20.78;68.65
5938;DHT22;2994;51.220;4.412;2022-10-29T10:23:21;20.92;67.97
5938;DHT22;2994;51.220;4.412;2022-10-29T10:25:47;21.01;67.78
5938;DHT22;2994;51.220;4.412;2022-10-29T10:28:21;21.09;66.97
5938;DHT22;2994;51.220;4.412;2022-10-29T10:33:35;21.17;65.94
5938;DHT22;2994;51.220;4.412;2022-10-29T10:36:06;21.23;66.14
5938;DHT22;2994;51.220;4.412;2022-10-29T10:39:02;21.33;65.88
5938;DHT22;2994;51.220;4.412;2022-10-29T10:41:29;21.39;65.76
5938;DHT22;2994;51.220;4.412;2022-10-29T10:43:58;21.37;65.40
5938;DHT22;2994;51.220;4.412;2022-10-29T10:46:36;21.43;65.30
5938;DHT22;2994;51.220;4.412;2022-10-29T10:49:05;21.46;64.59
5938;DHT22;2994;51.220;4.412;2022-10-29T10:51:33;21.54;63.50
5938;DHT22;2994;51.220;4.412;2022-10-29T10:54:45;21.57;65.32
5938;DHT22;2994;51.220;4.412;2022-10-29T10:56:59;21.59;65.94
5938;DHT22;2994;51.220;4.412;2022-10-29T11:03:05;21.60;63.55
5938;DHT22;2994;51.220;4.412;2022-10-29T11:05:22;21.66;64.24
5938;DHT22;2994;51.220;4.412;2022-10-29T11:10:54;21.64;62.63
5938;DHT22;2994;51.220;4.412;2022-10-29T11:13:26;21.77;62.44
5938;DHT22;2994;51.220;4.412;2022-10-29T11:15:57;21.79;63.35
5938;DHT22;2994;51.220;4.412;2022-10-29T11:18:32;21.83;63.21
5938;DHT22;2994;51.220;4.412;2022-10-29T11:21:08;21.85;62.71
5938;DHT22;2994;51.220;4.412;2022-10-29T11:23:54;21.84;63.22
5938;DHT22;2994;51.220;4.412;2022-10-29T11:26:35;21.88;63.41
5938;DHT22;2994;51.220;4.412;2022-10-29T11:32:14;21.89;62.94
5938;DHT22;2994;51.220;4.412;2022-10-29T11:37:36;21.95;62.46
5938;DHT22;2994;51.220;4.412;2022-10-29T11:40:12;21.98;63.66
5938;DHT22;2994;51.220;4.412;2022-10-29T11:42:37;22.01;63.50
5938;DHT22;2994;51.220;4.412;2022-10-29T11:45:04;22.01;63.31
5938;DHT22;2994;51.220;4.412;2022-10-29T11:47:52;21.98;64.78
5938;DHT22;2994;51.220;4.412;2022-10-29T11:50:26;21.92;64.23
5938;DHT22;2994;51.220;4.412;2022-10-29T11:53:13;21.91;65.01
5938;DHT22;2994;51.220;4.412;2022-10-29T11:55:42;21.88;64.98
5938;DHT22;2994;51.220;4.412;2022-10-29T12:01:08;21.90;63.48
5938;DHT22;2994;51.220;4.412;2022-10-29T12:03:48;21.85;61.91
5938;DHT22;2994;51.220;4.412;2022-10-29T12:06:51;22.06;60.79
5938;DHT22;2994;51.220;4.412;2022-10-29T12:12:29;22.21;61.87
5938;DHT22;2994;51.220;4.412;2022-10-29T12:15:18;22.19;62.69
5938;DHT22;2994;51.220;4.412;2022-10-29T12:26:14;22.32;62.54
5938;DHT22;2994;51.220;4.412;2022-10-29T12:31:28;22.48;61.63
5938;DHT22;2994;51.220;4.412;2022-10-29T12:34:04;22.51;60.06
5938;DHT22;2994;51.220;4.412;2022-10-29T12:39:14;22.66;62.41
5938;DHT22;2994;51.220;4.412;2022-10-29T12:41:48;22.68;62.20
5938;DHT22;2994;51.220;4.412;2022-10-29T12:53:21;22.87;60.24
5938;DHT22;2994;51.220;4.412;2022-10-29T12:55:50;22.96;60.65
5938;DHT22;2994;51.220;4.412;2022-10-29T13:01:23;23.05;60.35
5938;DHT22;2994;51.220;4.412;2022-10-29T13:06:46;23.05;63.52
5938;DHT22;2994;51.220;4.412;2022-10-29T13:09:46;23.10;61.02
5938;DHT22;2994;51.220;4.412;2022-10-29T13:12:12;23.12;62.08
5938;DHT22;2994;51.220;4.412;2022-10-29T13:17:25;23.11;63.00
5938;DHT22;2994;51.220;4.412;2022-10-29T13:19:56;23.13;64.09
5938;DHT22;2994;51.220;4.412;2022-10-29T13:22:49;23.15;64.09
5938;DHT22;2994;51.220;4.412;2022-10-29T13:30:39;23.40;59.97
5938;DHT22;2994;51.220;4.412;2022-10-29T13:36:05;23.57;59.32
5938;DHT22;2994;51.220;4.412;2022-10-29T13:41:26;23.73;58.84
5938;DHT22;2994;51.220;4.412;2022-10-29T13:44:20;23.76;58.74
5938;DHT22;2994;51.220;4.412;2022-10-29T13:46:56;23.84;58.48
5938;DHT22;2994;51.220;4.412;2022-10-29T13:49:29;23.94;58.15
5938;DHT22;2994;51.220;4.412;2022-10-29T13:52:02;24.05;58.29
5938;DHT22;2994;51.220;4.412;2022-10-29T13:54:41;24.11;58.63
5938;DHT22;2994;51.220;4.412;2022-10-29T13:59:56;24.21;58.20
5938;DHT22;2994;51.220;4.412;2022-10-29T14:05:18;24.35;58.33
5938;DHT22;2994;51.220;4.412;2022-10-29T14:08:00;24.41;57.76
5938;DHT22;2994;51.220;4.412;2022-10-29T14:18:50;24.44;56.16
5938;DHT22;2994;51.220;4.412;2022-10-29T14:26:22;24.35;56.07
5938;DHT22;2994;51.220;4.412;2022-10-29T14:28:49;24.44;55.72
5938;DHT22;2994;51.220;4.412;2022-10-29T14:31:17;24.45;55.76
5938;DHT22;2994;51.220;4.412;2022-10-29T14:33:56;24.42;55.65
5938;DHT22;2994;51.220;4.412;2022-10-29T14:36:40;24.44;55.44
5938;DHT22;2994;51.220;4.412;2022-10-29T14:41:45;24.46;55.69
5938;DHT22;2994;51.220;4.412;2022-10-29T14:44:19;24.38;55.66
5938;DHT22;2994;51.220;4.412;2022-10-29T14:47:02;24.33;55.56
5938;DHT22;2994;51.220;4.412;2022-10-29T14:49:29;24.35;55.53
5938;DHT22;2994;51.220;4.412;2022-10-29T14:52:06;24.30;55.74
5938;DHT22;2994;51.220;4.412;2022-10-29T14:54:40;24.38;55.55
5938;DHT22;2994;51.220;4.412;2022-10-29T14:57:12;24.34;55.73
5938;DHT22;2994;51.220;4.412;2022-10-29T14:59:46;24.28;55.82
5938;DHT22;2994;51.220;4.412;2022-10-29T15:02:13;24.20;55.96
5938;DHT22;2994;51.220;4.412;2022-10-29T15:04:47;24.30;55.75
5938;DHT22;2994;51.220;4.412;2022-10-29T15:12:35;24.21;55.61
5938;DHT22;2994;51.220;4.412;2022-10-29T15:17:34;24.13;55.87
5938;DHT22;2994;51.220;4.412;2022-10-29T15:20:05;24.06;56.19
5938;DHT22;2994;51.220;4.412;2022-10-29T15:22:31;24.06;56.23
5938;DHT22;2994;51.220;4.412;2022-10-29T15:25:00;24.00;56.23
5938;DHT22;2994;51.220;4.412;2022-10-29T15:27:27;23.99;56.13
5938;DHT22;2994;51.220;4.412;2022-10-29T15:29:53;23.96;56.22
5938;DHT22;2994;51.220;4.412;2022-10-29T15:32:19;23.91;56.24
5938;DHT22;2994;51.220;4.412;2022-10-29T15:34:56;23.94;56.00
5938;DHT22;2994;51.220;4.412;2022-10-29T15:37:38;24.02;55.71
5938;DHT22;2994;51.220;4.412;2022-10-29T15:40:16;24.00;55.54
5938;DHT22;2994;51.220;4.412;2022-10-29T15:42:42;24.00;55.26
5938;DHT22;2994;51.220;4.412;2022-10-29T15:47:38;23.94;55.15
5938;DHT22;2994;51.220;4.412;2022-10-29T15:50:06;23.84;55.17
5938;DHT22;2994;51.220;4.412;2022-10-29T15:52:38;23.82;55.11
5938;DHT22;2994;51.220;4.412;2022-10-29T15:55:14;23.84;54.99
5938;DHT22;2994;51.220;4.412;2022-10-29T15:57:41;23.84;54.93
5938;DHT22;2994;51.220;4.412;2022-10-29T16:00:07;23.75;55.20
5938;DHT22;2994;51.220;4.412;2022-10-29T16:02:33;23.70;55.75
5938;DHT22;2994;51.220;4.412;2022-10-29T16:04:58;23.68;55.64
5938;DHT22;2994;51.220;4.412;2022-10-29T16:07:24;23.68;55.28
5938;DHT22;2994;51.220;4.412;2022-10-29T16:09:52;23.59;55.56
5938;DHT22;2994;51.220;4.412;2022-10-29T16:12:18;23.65;54.89
5938;DHT22;2994;51.220;4.412;2022-10-29T16:14:43;23.59;55.31
5938;DHT22;2994;51.220;4.412;2022-10-29T16:17:15;23.56;55.26
5938;DHT22;2994;51.220;4.412;2022-10-29T16:19:41;23.53;54.97
5938;DHT22;2994;51.220;4.412;2022-10-29T16:22:17;23.53;55.07
5938;DHT22;2994;51.220;4.412;2022-10-29T16:24:44;23.46;55.38
5938;DHT22;2994;51.220;4.412;2022-10-29T16:27:15;23.42;55.69
5938;DHT22;2994;51.220;4.412;2022-10-29T16:29:41;23.43;55.32
5938;DHT22;2994;51.220;4.412;2022-10-29T16:32:18;23.40;55.62
5938;DHT22;2994;51.220;4.412;2022-10-29T16:34:45;23.38;55.97
5938;DHT22;2994;51.220;4.412;2022-10-29T16:37:12;23.31;56.15
5938;DHT22;2994;51.220;4.412;2022-10-29T16:39:38;23.26;55.52
5938;DHT22;2994;51.220;4.412;2022-10-29T16:42:04;23.18;55.85
5938;DHT22;2994;51.220;4.412;2022-10-29T16:44:30;23.16;55.85
5938;DHT22;2994;51.220;4.412;2022-10-29T16:46:55;23.14;55.54
5938;DHT22;2994;51.220;4.412;2022-10-29T16:49:21;23.11;55.96
5938;DHT22;2994;51.220;4.412;2022-10-29T16:51:46;23.10;55.43
5938;DHT22;2994;51.220;4.412;2022-10-29T16:54:12;23.08;55.55
5938;DHT22;2994;51.220;4.412;2022-10-29T16:56:37;23.03;56.32
5938;DHT22;2994;51.220;4.412;2022-10-29T16:59:03;23.00;57.16
5938;DHT22;2994;51.220;4.412;2022-10-29T17:01:28;22.97;57.45
5938;DHT22;2994;51.220;4.412;2022-10-29T17:03:54;22.91;56.94
5938;DHT22;2994;51.220;4.412;2022-10-29T17:06:19;22.88;57.05
5938;DHT22;2994;51.220;4.412;2022-10-29T17:08:44;22.87;56.89
5938;DHT22;2994;51.220;4.412;2022-10-29T17:11:10;22.84;57.63
5938;DHT22;2994;51.220;4.412;2022-10-29T17:13:36;22.82;57.58
5938;DHT22;2994;51.220;4.412;2022-10-29T17:16:09;22.75;58.34
5938;DHT22;2994;51.220;4.412;2022-10-29T17:18:35;22.69;58.96
5938;DHT22;2994;51.220;4.412;2022-10-29T17:21:01;22.65;57.90
5938;DHT22;2994;51.220;4.412;2022-10-29T17:23:28;22.61;57.99
5938;DHT22;2994;51.220;4.412;2022-10-29T17:25:55;22.58;58.35
5938;DHT22;2994;51.220;4.412;2022-10-29T17:28:21;22.54;59.08
5938;DHT22;2994;51.220;4.412;2022-10-29T17:30:47;22.48;59.84
5938;DHT22;2994;51.220;4.412;2022-10-29T17:33:12;22.41;60.06
5938;DHT22;2994;51.220;4.412;2022-10-29T17:35:38;22.32;60.40
5938;DHT22;2994;51.220;4.412;2022-10-29T17:38:04;22.28;60.51
5938;DHT22;2994;51.220;4.412;2022-10-29T17:40:29;22.21;61.05
5938;DHT22;2994;51.220;4.412;2022-10-29T17:42:55;22.16;61.34
5938;DHT22;2994;51.220;4.412;2022-10-29T17:45:20;22.09;61.57
5938;DHT22;2994;51.220;4.412;2022-10-29T17:47:47;22.05;61.81
5938;DHT22;2994;51.220;4.412;2022-10-29T17:50:12;22.02;62.11
5938;DHT22;2994;51.220;4.412;2022-10-29T17:52:38;21.99;62.27
5938;DHT22;2994;51.220;4.412;2022-10-29T17:55:04;21.95;62.33
5938;DHT22;2994;51.220;4.412;2022-10-29T17:57:29;21.92;62.35
5938;DHT22;2994;51.220;4.412;2022-10-29T17:59:55;21.87;62.52
5938;DHT22;2994;51.220;4.412;2022-10-29T18:02:20;21.84;62.30
5938;DHT22;2994;51.220;4.412;2022-10-29T18:04:46;21.85;62.20
5938;DHT22;2994;51.220;4.412;2022-10-29T18:07:11;21.84;62.36
5938;DHT22;2994;51.220;4.412;2022-10-29T18:09:37;21.83;62.62
5938;DHT22;2994;51.220;4.412;2022-10-29T18:12:03;21.81;62.52
5938;DHT22;2994;51.220;4.412;2022-10-29T18:14:28;21.80;62.57
5938;DHT22;2994;51.220;4.412;2022-10-29T18:16:53;21.79;61.99
5938;DHT22;2994;51.220;4.412;2022-10-29T18:19:19;21.77;62.72
5938;DHT22;2994;51.220;4.412;2022-10-29T18:21:45;21.76;62.96
5938;DHT22;2994;51.220;4.412;2022-10-29T18:24:10;21.74;62.63
5938;DHT22;2994;51.220;4.412;2022-10-29T18:26:36;21.73;62.39
5938;DHT22;2994;51.220;4.412;2022-10-29T18:29:07;21.70;63.02
5938;DHT22;2994;51.220;4.412;2022-10-29T18:31:33;21.67;62.53
5938;DHT22;2994;51.220;4.412;2022-10-29T18:34:00;21.64;62.65
5938;DHT22;2994;51.220;4.412;2022-10-29T18:36:28;21.62;62.73
5938;DHT22;2994;51.220;4.412;2022-10-29T18:38:55;21.58;63.08